createdAt,value
2022-08-20T00:00:40.780Z,22.50
2022-08-20T00:03:20.766Z,23.32
2022-08-20T00:05:58.826Z,22.22
2022-08-20T00:08:30.822Z,24.20
2022-08-20T00:11:02.864Z,23.40
2022-08-20T00:13:36.777Z,23.35
2022-08-20T00:16:09.902Z,22.80
2022-08-20T00:18:41.940Z,23.10
2022-08-20T00:21:18.867Z,22.87
2022-08-20T00:23:51.556Z,21.97
2022-08-20T00:26:23.687Z,23.02
2022-08-20T00:28:55.493Z,22.32
2022-08-20T00:31:26.755Z,23.47
2022-08-20T00:33:59.249Z,24.30
2022-08-20T00:36:32.738Z,24.10
2022-08-20T00:39:03.210Z,23.98
2022-08-20T00:41:34.296Z,23.52
2022-08-20T00:44:14.018Z,24.18
2022-08-20T00:46:46.151Z,23.20
2022-08-20T00:49:23.422Z,23.65
2022-08-20T00:52:09.691Z,25.08
2022-08-20T00:54:49.560Z,25.72
2022-08-20T00:57:58.958Z,25.70
2022-08-20T01:00:07.370Z,25.37
2022-08-20T01:02:38.993Z,26.75
2022-08-20T01:05:11.261Z,25.75
2022-08-20T01:07:42.943Z,25.27
2022-08-20T01:10:21.077Z,25.85
2022-08-20T01:12:59.232Z,25.45
2022-08-20T01:15:30.952Z,25.57
2022-08-20T01:18:02.954Z,27.02
2022-08-20T01:20:36.745Z,26.33
2022-08-20T01:23:28.468Z,25.48
2022-08-20T01:26:20.293Z,25.72
2022-08-20T01:28:57.498Z,25.37
2022-08-20T01:31:31.827Z,26.48
2022-08-20T01:34:05.264Z,27.73
2022-08-20T01:36:46.484Z,28.00
2022-08-20T01:39:20.752Z,25.82
2022-08-20T01:42:07.465Z,25.72
2022-08-20T01:44:40.939Z,26.15
2022-08-20T01:47:15.918Z,26.48
2022-08-20T01:52:24.669Z,27.40
2022-08-20T01:55:06.898Z,26.87
2022-08-20T01:57:38.984Z,27.15
2022-08-20T02:00:19.722Z,25.92
2022-08-20T02:02:46.327Z,27.62
2022-08-20T02:05:18.799Z,27.95
2022-08-20T02:07:50.338Z,26.07
2022-08-20T02:10:21.545Z,28.73
2022-08-20T02:12:53.005Z,26.77
2022-08-20T02:15:34.493Z,28.00
2022-08-20T02:17:58.373Z,27.50
2022-08-20T02:20:30.648Z,26.70
2022-08-20T02:23:03.871Z,26.90
2022-08-20T02:25:37.598Z,29.57
2022-08-20T02:28:11.500Z,28.65
2022-08-20T02:30:45.417Z,29.55
2022-08-20T02:33:19.246Z,31.23
2022-08-20T02:35:51.657Z,28.95
2022-08-20T02:38:22.490Z,31.23
2022-08-20T02:40:53.343Z,30.45
2022-08-20T02:43:24.714Z,30.35
2022-08-20T02:45:56.071Z,30.02
2022-08-20T02:48:27.660Z,30.05
2022-08-20T02:51:04.547Z,31.55
2022-08-20T02:53:38.979Z,29.72
2022-08-20T02:56:12.333Z,29.82
2022-08-20T02:58:43.438Z,29.75
2022-08-20T03:01:17.349Z,29.10
2022-08-20T03:03:48.758Z,29.05
2022-08-20T03:06:19.689Z,28.40
2022-08-20T03:08:50.917Z,28.30
2022-08-20T03:11:22.107Z,28.95
2022-08-20T03:13:52.970Z,28.73
2022-08-20T03:16:24.259Z,28.85
2022-08-20T03:18:56.219Z,29.30
2022-08-20T03:21:27.217Z,27.82
2022-08-20T03:23:58.019Z,26.85
2022-08-20T03:26:29.174Z,27.35
2022-08-20T03:29:00.346Z,28.17
2022-08-20T03:31:31.609Z,27.35
2022-08-20T03:34:02.560Z,27.80
2022-08-20T03:36:34.129Z,28.60
2022-08-20T03:39:09.688Z,28.55
2022-08-20T03:41:40.962Z,27.98
2022-08-20T03:44:11.848Z,28.62
2022-08-20T03:46:42.769Z,29.98
2022-08-20T03:49:15.151Z,29.75
2022-08-20T03:51:58.278Z,29.80
2022-08-20T03:54:18.809Z,29.57
2022-08-20T03:56:50.075Z,29.05
2022-08-20T03:59:21.020Z,28.80
2022-08-20T04:01:52.906Z,28.73
2022-08-20T04:04:23.952Z,29.20
2022-08-20T04:06:55.023Z,27.77
2022-08-20T04:09:25.867Z,29.37
2022-08-20T04:11:58.360Z,28.67
2022-08-20T04:14:30.108Z,27.77
2022-08-20T04:17:02.833Z,27.98
2022-08-20T04:19:34.425Z,28.60
2022-08-20T04:22:05.692Z,29.23
2022-08-20T04:24:37.621Z,26.95
2022-08-20T04:27:09.098Z,27.73
2022-08-20T04:29:43.955Z,26.97
2022-08-20T04:32:14.818Z,27.60
2022-08-20T04:34:47.451Z,27.93
2022-08-20T04:37:23.682Z,28.83
2022-08-20T04:40:12.250Z,29.32
2022-08-20T04:42:43.553Z,29.67
2022-08-20T04:45:14.443Z,28.70
2022-08-20T04:47:47.144Z,28.83
2022-08-20T04:50:19.057Z,29.48
2022-08-20T04:52:49.977Z,30.40
2022-08-20T04:55:21.369Z,30.48
2022-08-20T04:57:55.084Z,28.47
2022-08-20T05:00:26.422Z,29.77
2022-08-20T05:02:57.381Z,30.75
2022-08-20T05:05:28.973Z,32.55
2022-08-20T05:07:59.697Z,30.52
2022-08-20T05:10:32.030Z,30.05
2022-08-20T05:13:02.839Z,27.15
2022-08-20T05:15:35.041Z,30.50
2022-08-20T05:18:08.275Z,31.05
2022-08-20T05:20:41.250Z,28.92
2022-08-20T05:23:15.179Z,30.92
2022-08-20T05:25:48.341Z,30.37
2022-08-20T05:28:22.209Z,31.90
2022-08-20T05:30:54.369Z,33.18
2022-08-20T05:33:25.733Z,33.90
2022-08-20T05:35:58.007Z,33.55
2022-08-20T05:38:31.688Z,32.45
2022-08-20T05:41:02.821Z,32.25
2022-08-20T05:43:34.062Z,32.53
2022-08-20T05:46:06.685Z,35.30
2022-08-20T05:48:37.638Z,32.23
2022-08-20T05:51:12.082Z,33.42
2022-08-20T05:53:42.027Z,33.48
2022-08-20T05:56:13.233Z,31.33
2022-08-20T05:58:45.738Z,34.63
2022-08-20T06:01:16.653Z,33.15
2022-08-20T06:04:05.747Z,33.88
2022-08-20T06:06:45.738Z,32.73
2022-08-20T06:09:10.128Z,31.50
2022-08-20T06:11:41.492Z,31.30
2022-08-20T06:14:12.865Z,31.80
2022-08-20T06:16:57.191Z,30.85
2022-08-20T06:19:17.305Z,32.98
2022-08-20T06:21:51.454Z,31.82
2022-08-20T06:24:22.501Z,32.83
2022-08-20T06:27:01.639Z,34.05
2022-08-20T06:29:35.738Z,36.03
2022-08-20T06:32:07.377Z,36.30
2022-08-20T06:34:50.202Z,31.25
2022-08-20T06:37:20.483Z,27.37
2022-08-20T06:39:52.967Z,33.88
2022-08-20T06:42:26.539Z,30.25
2022-08-20T06:45:00.156Z,35.85
2022-08-20T06:47:31.713Z,31.65
2022-08-20T06:50:02.899Z,31.20
2022-08-20T06:52:51.625Z,29.00
2022-08-20T06:55:08.335Z,34.88
2022-08-20T06:57:40.266Z,31.68
2022-08-20T07:00:14.974Z,34.20
2022-08-20T07:02:48.505Z,39.60
2022-08-20T07:05:18.822Z,36.03
2022-08-20T07:07:51.287Z,32.85
2022-08-20T07:10:24.997Z,34.08
2022-08-20T07:12:58.052Z,35.15
2022-08-20T07:15:29.295Z,37.80
2022-08-20T07:18:04.549Z,33.80
2022-08-20T07:20:38.592Z,33.80
2022-08-20T07:23:12.110Z,35.55
2022-08-20T07:25:45.472Z,34.13
2022-08-20T07:28:19.522Z,37.48
2022-08-20T07:31:13.856Z,34.00
2022-08-20T07:33:42.188Z,31.73
2022-08-20T07:36:15.788Z,33.50
2022-08-20T07:38:48.814Z,34.95
2022-08-20T07:41:20.751Z,32.98
2022-08-20T07:43:53.619Z,30.65
2022-08-20T07:46:25.346Z,29.00
2022-08-20T07:48:58.171Z,27.13
2022-08-20T07:51:29.922Z,24.67
2022-08-20T07:54:00.975Z,24.47
2022-08-20T07:56:32.571Z,24.87
2022-08-20T07:59:05.615Z,24.27
2022-08-20T08:01:36.743Z,22.37
2022-08-20T08:04:08.073Z,20.65
2022-08-20T08:06:42.312Z,20.30
2022-08-20T08:09:15.718Z,24.75
2022-08-20T08:11:52.931Z,20.80
2022-08-20T08:14:27.319Z,20.27
2022-08-20T08:17:01.388Z,21.00
2022-08-20T08:19:37.183Z,20.17
2022-08-20T08:22:13.827Z,17.95
2022-08-20T08:24:57.678Z,18.25
2022-08-20T08:27:20.984Z,17.70
2022-08-20T08:29:53.683Z,17.00
2022-08-20T08:32:25.169Z,15.70
2022-08-20T08:34:56.487Z,15.75
2022-08-20T08:37:30.684Z,13.28
2022-08-20T08:40:00.909Z,15.50
2022-08-20T08:42:42.588Z,13.48
2022-08-20T08:45:11.851Z,15.25
2022-08-20T08:47:43.861Z,15.45
2022-08-20T08:50:43.791Z,14.98
2022-08-20T08:52:59.327Z,17.12
2022-08-20T08:55:32.228Z,17.10
2022-08-20T08:58:17.126Z,14.47
2022-08-20T09:00:48.770Z,15.23
2022-08-20T09:03:14.591Z,15.60
2022-08-20T09:05:54.220Z,16.90
2022-08-20T09:08:28.120Z,16.93
2022-08-20T09:11:04.838Z,15.83
2022-08-20T09:13:36.888Z,15.70
2022-08-20T09:16:08.300Z,18.90
2022-08-20T09:18:39.727Z,14.38
2022-08-20T09:21:11.840Z,17.25
2022-08-20T09:23:43.371Z,16.02
2022-08-20T09:26:14.336Z,14.47
2022-08-20T09:28:51.226Z,13.48
2022-08-20T09:31:18.790Z,13.25
2022-08-20T09:33:52.071Z,13.18
2022-08-20T09:36:29.248Z,13.55
2022-08-20T09:38:56.398Z,12.98
2022-08-20T09:41:27.539Z,14.38
2022-08-20T09:43:58.797Z,15.68
2022-08-20T09:46:29.784Z,12.35
2022-08-20T09:49:01.061Z,13.38
2022-08-20T09:51:33.065Z,13.68
2022-08-20T09:54:05.632Z,13.68
2022-08-20T09:56:37.052Z,13.00
2022-08-20T09:59:08.252Z,97.57
2022-08-20T10:01:39.293Z,59.60
2022-08-20T10:04:10.432Z,36.90
2022-08-20T10:06:43.297Z,22.77
2022-08-20T10:09:14.576Z,18.27
2022-08-20T10:11:45.693Z,13.93
2022-08-20T10:14:16.650Z,11.73
2022-08-20T10:16:50.365Z,14.98
2022-08-20T10:19:21.455Z,12.07
2022-08-20T10:21:56.161Z,13.50
2022-08-20T10:24:27.423Z,10.15
2022-08-20T10:27:00.705Z,12.18
2022-08-20T10:29:34.067Z,10.68
2022-08-20T10:32:16.730Z,10.03
2022-08-20T10:34:49.224Z,10.60
2022-08-20T10:37:22.680Z,9.73
2022-08-20T10:39:54.648Z,10.53
2022-08-20T10:42:26.495Z,8.78
2022-08-20T10:44:57.579Z,10.53
2022-08-20T10:47:35.114Z,11.65
2022-08-20T10:50:09.204Z,9.43
2022-08-20T10:52:40.639Z,7.25
2022-08-20T10:55:13.164Z,9.25
2022-08-20T10:57:46.450Z,8.28
2022-08-20T11:00:19.662Z,7.80
2022-08-20T11:02:51.214Z,9.38
2022-08-20T11:05:23.374Z,7.78
2022-08-20T11:08:01.308Z,6.72
2022-08-20T11:10:34.548Z,7.28
2022-08-20T11:13:07.239Z,6.47
2022-08-20T11:15:41.150Z,7.75
2022-08-20T11:18:13.498Z,6.85
2022-08-20T11:20:44.614Z,8.30
2022-08-20T11:23:15.535Z,7.67
2022-08-20T11:25:47.133Z,9.40
2022-08-20T11:28:31.248Z,9.55
2022-08-20T11:30:52.004Z,8.58
2022-08-20T11:33:23.200Z,6.70
2022-08-20T11:35:54.278Z,9.63
2022-08-20T11:38:25.865Z,8.53
2022-08-20T11:40:56.969Z,10.18
2022-08-20T11:43:28.474Z,12.23
2022-08-20T11:46:00.111Z,9.73
2022-08-20T11:48:31.372Z,10.32
2022-08-20T11:51:02.775Z,8.43
2022-08-20T11:53:33.946Z,9.63
2022-08-20T11:56:07.066Z,8.78
2022-08-20T11:58:38.217Z,10.38
2022-08-20T12:01:09.981Z,7.70
2022-08-20T12:03:40.975Z,10.28
2022-08-20T12:06:12.257Z,8.80
2022-08-20T12:08:43.537Z,10.72
2022-08-20T12:11:15.688Z,9.65
2022-08-20T12:13:49.236Z,8.25
2022-08-20T12:16:21.419Z,9.70
2022-08-20T12:18:54.297Z,7.85
2022-08-20T12:21:31.952Z,12.15
2022-08-20T12:24:00.374Z,10.75
2022-08-20T12:26:31.406Z,9.28
2022-08-20T12:29:02.687Z,13.30
2022-08-20T12:31:33.847Z,9.28
2022-08-20T12:34:06.417Z,8.33
2022-08-20T12:36:39.097Z,10.15
2022-08-20T12:39:12.118Z,9.60
2022-08-20T12:41:44.800Z,8.30
2022-08-20T12:44:17.466Z,7.95
2022-08-20T12:46:50.225Z,9.60
2022-08-20T12:49:24.074Z,7.90
2022-08-20T12:51:55.158Z,8.88
2022-08-20T12:54:27.956Z,9.60
2022-08-20T12:56:59.479Z,8.98
2022-08-20T12:59:33.727Z,9.33
2022-08-20T13:02:13.904Z,9.68
2022-08-20T13:04:39.926Z,8.85
2022-08-20T13:07:13.361Z,9.13
2022-08-20T13:09:45.147Z,7.65
2022-08-20T13:12:16.279Z,7.37
2022-08-20T13:14:47.518Z,7.90
2022-08-20T13:17:19.875Z,11.22
2022-08-20T13:19:53.048Z,15.78
2022-08-20T13:22:25.258Z,20.77
2022-08-20T13:24:56.558Z,17.07
2022-08-20T13:27:28.339Z,13.43
2022-08-20T13:29:59.598Z,11.10
2022-08-20T13:32:30.680Z,11.40
2022-08-20T13:35:01.938Z,13.15
2022-08-20T13:37:33.118Z,12.55
2022-08-20T13:40:05.143Z,13.10
2022-08-20T13:42:37.698Z,12.53
2022-08-20T13:45:10.047Z,14.63
2022-08-20T13:47:42.441Z,18.05
2022-08-20T13:50:16.276Z,13.93
2022-08-20T13:52:48.395Z,11.90
2022-08-20T13:55:21.939Z,17.87
2022-08-20T13:57:54.189Z,15.55
2022-08-20T14:00:31.659Z,10.53
2022-08-20T14:03:07.617Z,12.43
2022-08-20T14:05:39.541Z,13.35
2022-08-20T14:08:16.392Z,12.55
2022-08-20T14:10:51.871Z,11.55
2022-08-20T14:13:27.180Z,9.88
2022-08-20T14:15:58.126Z,10.58
2022-08-20T14:18:29.634Z,11.83
2022-08-20T14:21:00.492Z,9.83
2022-08-20T14:23:31.748Z,10.80
2022-08-20T14:26:04.447Z,11.68
2022-08-20T14:28:37.037Z,9.60
2022-08-20T14:31:08.308Z,8.63
2022-08-20T14:33:44.462Z,13.22
2022-08-20T14:36:12.427Z,10.80
2022-08-20T14:38:45.181Z,10.00
2022-08-20T14:41:16.640Z,9.95
2022-08-20T14:43:47.508Z,8.28
2022-08-20T14:46:18.610Z,13.80
2022-08-20T14:48:53.300Z,12.85
2022-08-20T14:51:22.561Z,9.95
2022-08-20T14:53:53.599Z,10.45
2022-08-20T14:56:24.785Z,12.05
2022-08-20T14:58:55.889Z,13.00
2022-08-20T15:01:27.370Z,11.65
2022-08-20T15:04:00.049Z,9.20
2022-08-20T15:06:31.684Z,16.00
2022-08-20T15:09:02.855Z,12.75
2022-08-20T15:11:37.093Z,11.12
2022-08-20T15:14:08.722Z,13.85
2022-08-20T15:16:39.797Z,11.55
2022-08-20T15:19:10.790Z,10.03
2022-08-20T15:21:45.063Z,10.23
2022-08-20T15:24:19.130Z,12.70
2022-08-20T15:26:49.570Z,12.33
2022-08-20T15:29:23.218Z,9.75
2022-08-20T15:31:53.748Z,13.13
2022-08-20T15:34:25.000Z,11.85
2022-08-20T15:36:57.251Z,12.68
2022-08-20T15:39:30.208Z,12.40
2022-08-20T15:42:01.439Z,12.23
2022-08-20T15:44:33.070Z,9.03
2022-08-20T15:47:26.615Z,12.73
2022-08-20T15:50:09.133Z,9.78
2022-08-20T15:52:42.207Z,12.93
2022-08-20T15:55:17.073Z,11.03
2022-08-20T15:57:54.851Z,11.22
2022-08-20T16:00:30.135Z,11.22
2022-08-20T16:03:16.037Z,13.72
2022-08-20T16:06:08.296Z,12.73
2022-08-20T16:09:02.143Z,10.90
2022-08-20T16:11:55.661Z,9.65
2022-08-20T16:14:30.102Z,12.50
2022-08-20T16:17:08.565Z,13.58
2022-08-20T16:20:01.360Z,13.38
2022-08-20T16:22:33.630Z,13.50
2022-08-20T16:25:05.626Z,11.63
2022-08-20T16:27:42.113Z,11.03
2022-08-20T16:30:20.650Z,10.65
2022-08-20T16:32:59.169Z,10.95
2022-08-20T16:35:45.463Z,12.28
2022-08-20T16:38:24.180Z,9.75
2022-08-20T16:41:01.383Z,9.60
2022-08-20T16:43:38.450Z,9.53
2022-08-20T16:46:22.465Z,12.58
2022-08-20T16:49:00.574Z,14.25
2022-08-20T16:51:52.220Z,10.05
2022-08-20T16:54:28.461Z,9.38
2022-08-20T16:57:05.250Z,10.78
2022-08-20T16:59:38.537Z,11.05
2022-08-20T17:02:12.229Z,10.68
2022-08-20T17:04:58.797Z,12.10
2022-08-20T17:07:33.517Z,14.60
2022-08-20T17:10:12.553Z,11.85
2022-08-20T17:12:47.167Z,10.53
2022-08-20T17:15:24.110Z,13.35
2022-08-20T17:17:56.377Z,12.20
2022-08-20T17:20:29.210Z,9.05
2022-08-20T17:23:15.757Z,12.23
2022-08-20T17:25:49.644Z,12.07
2022-08-20T17:28:23.658Z,16.02
2022-08-20T17:30:56.260Z,17.70
2022-08-20T17:33:36.878Z,13.18
2022-08-20T17:36:14.156Z,10.95
2022-08-20T17:39:08.526Z,11.85
2022-08-20T17:41:39.765Z,15.00
2022-08-20T17:44:13.506Z,9.30
2022-08-20T17:46:48.188Z,14.05
2022-08-20T17:49:24.880Z,15.18
2022-08-20T17:51:59.533Z,16.32
2022-08-20T17:54:33.506Z,16.10
2022-08-20T17:57:10.498Z,14.75
2022-08-20T18:00:01.377Z,14.20
2022-08-20T18:02:23.390Z,15.28
2022-08-20T18:04:57.217Z,14.73
2022-08-20T18:07:34.560Z,15.20
2022-08-20T18:10:17.579Z,13.28
2022-08-20T18:12:56.011Z,12.00
2022-08-20T18:15:30.443Z,9.98
2022-08-20T18:18:22.236Z,10.88
2022-08-20T18:21:08.693Z,8.40
2022-08-20T18:23:42.663Z,8.80
2022-08-20T18:26:34.973Z,7.22
2022-08-20T18:29:14.765Z,8.50
2022-08-20T18:31:54.730Z,6.90
2022-08-20T18:34:31.688Z,5.90
2022-08-20T18:37:08.299Z,4.55
2022-08-20T18:39:42.596Z,4.35
2022-08-20T18:42:29.453Z,5.37
2022-08-20T18:45:01.636Z,5.53
2022-08-20T18:47:35.879Z,3.40
2022-08-20T18:50:17.002Z,3.63
2022-08-20T18:52:45.585Z,6.30
2022-08-20T18:55:36.513Z,4.83
2022-08-20T18:58:11.002Z,3.75
2022-08-20T19:00:52.356Z,4.67
2022-08-20T19:03:32.319Z,5.15
2022-08-20T19:06:08.211Z,6.35
2022-08-20T19:08:44.178Z,7.40
2022-08-20T19:11:33.752Z,4.55
2022-08-20T19:14:41.323Z,4.58
2022-08-20T19:17:49.496Z,5.25
2022-08-20T19:20:26.191Z,4.37
2022-08-20T19:23:03.883Z,4.85
2022-08-20T19:25:41.160Z,5.67
2022-08-20T19:28:24.626Z,5.10
2022-08-20T19:30:56.504Z,3.40
2022-08-20T19:33:30.637Z,4.45
2022-08-20T19:36:17.885Z,4.05
2022-08-20T19:38:53.701Z,5.65
2022-08-20T19:41:34.260Z,6.28
2022-08-20T19:44:05.749Z,4.47
2022-08-20T19:46:42.222Z,4.95
2022-08-20T19:49:19.810Z,4.22
2022-08-20T19:52:17.679Z,4.12
2022-08-20T19:54:55.799Z,3.60
2022-08-20T19:57:28.819Z,3.65
2022-08-20T20:00:04.958Z,4.53
2022-08-20T20:02:37.573Z,4.22
2022-08-20T20:05:10.576Z,4.35
2022-08-20T20:07:47.198Z,4.00
2022-08-20T20:10:38.051Z,4.50
2022-08-20T20:13:14.796Z,4.17
2022-08-20T20:15:46.609Z,5.25
2022-08-20T20:18:19.708Z,6.35
2022-08-20T20:20:57.850Z,4.12
2022-08-20T20:23:45.452Z,4.47
2022-08-20T20:26:10.327Z,5.12
2022-08-20T20:28:47.299Z,4.55
2022-08-20T20:31:25.089Z,4.58
2022-08-20T20:34:01.951Z,5.47
2022-08-20T20:36:49.038Z,4.37
2022-08-20T20:39:36.535Z,5.25
2022-08-20T20:42:11.359Z,4.97
2022-08-20T20:44:46.339Z,6.05
2022-08-20T20:47:33.387Z,7.80
2022-08-20T20:50:11.930Z,6.97
2022-08-20T20:52:56.295Z,6.25
2022-08-20T20:55:36.232Z,5.78
2022-08-20T20:58:07.689Z,6.47
2022-08-20T21:00:39.378Z,7.37
2022-08-20T21:03:10.984Z,7.33
2022-08-20T21:05:42.653Z,7.95
2022-08-20T21:08:17.661Z,7.67
2022-08-20T21:10:50.979Z,8.20
2022-08-20T21:13:22.902Z,8.83
2022-08-20T21:15:55.118Z,10.82
2022-08-20T21:18:26.534Z,7.90
2022-08-20T21:20:59.520Z,8.65
2022-08-20T21:23:41.299Z,8.00
2022-08-20T21:26:08.167Z,7.92
2022-08-20T21:28:40.294Z,8.28
2022-08-20T21:31:12.507Z,8.20
2022-08-20T21:33:43.920Z,8.60
2022-08-20T21:36:15.943Z,9.38
2022-08-20T21:38:49.876Z,8.63
2022-08-20T21:41:29.881Z,8.95
2022-08-20T21:44:01.754Z,9.55
2022-08-20T21:46:33.992Z,9.95
2022-08-20T21:49:06.032Z,9.40
2022-08-20T21:51:38.432Z,10.20
2022-08-20T21:54:10.005Z,11.20
2022-08-20T21:56:42.963Z,12.33
2022-08-20T21:59:16.453Z,9.95
2022-08-20T22:01:48.033Z,10.10
2022-08-20T22:04:20.084Z,10.43
2022-08-20T22:06:52.804Z,10.88
2022-08-20T22:09:25.250Z,11.15
2022-08-20T22:11:57.559Z,11.18
2022-08-20T22:14:29.604Z,11.73
2022-08-20T22:17:03.797Z,12.75
2022-08-20T22:19:34.817Z,11.97
2022-08-20T22:22:07.437Z,11.57
2022-08-20T22:24:40.437Z,10.53
2022-08-20T22:27:13.697Z,12.18
2022-08-20T22:29:45.176Z,11.88
2022-08-20T22:32:18.445Z,10.60
2022-08-20T22:34:52.829Z,11.28
2022-08-20T22:37:24.471Z,11.45
2022-08-20T22:39:57.650Z,11.53
2022-08-20T22:42:29.049Z,11.57
2022-08-20T22:45:01.091Z,11.00
2022-08-20T22:47:33.890Z,11.60
2022-08-20T22:50:08.210Z,12.15
2022-08-20T22:52:44.317Z,12.25
2022-08-20T22:55:17.024Z,12.63
2022-08-20T22:57:50.050Z,12.85
2022-08-20T23:00:25.130Z,13.83
2022-08-20T23:02:59.477Z,13.98
2022-08-20T23:05:33.383Z,13.13
2022-08-20T23:08:05.793Z,14.05
2022-08-20T23:10:38.518Z,13.62
2022-08-20T23:13:09.842Z,13.83
2022-08-20T23:15:45.320Z,13.70
2022-08-20T23:18:17.984Z,14.63
2022-08-20T23:20:51.836Z,13.38
2022-08-20T23:23:23.413Z,14.25
2022-08-20T23:25:55.190Z,14.78
2022-08-20T23:28:27.289Z,15.60
2022-08-20T23:30:58.372Z,14.35
2022-08-20T23:33:29.255Z,13.60
2022-08-20T23:36:02.759Z,14.95
2022-08-20T23:38:33.809Z,15.30
2022-08-20T23:41:04.878Z,13.30
2022-08-20T23:43:36.357Z,14.30
2022-08-20T23:46:09.139Z,13.03
2022-08-20T23:48:40.588Z,13.00
2022-08-20T23:51:13.109Z,13.55
2022-08-20T23:53:44.186Z,13.70
2022-08-20T23:56:15.643Z,15.50
2022-08-20T23:58:46.707Z,13.50
